sensor_id;sensor_type;location;lat;lon;timestamp;temperature;humidity
33831;DHT22;20137;48.834;8.732;2023-02-16T00:01:34;4.40;99.90
33831;DHT22;20137;48.834;8.732;2023-02-16T00:04:00;4.50;99.90
33831;DHT22;20137;48.834;8.732;2023-02-16T00:06:27;4.40;99.90
33831;DHT22;20137;48.834;8.732;2023-02-16T00:08:54;4.40;99.90
33831;DHT22;20137;48.834;8.732;2023-02-16T00:11:30;4.40;99.90
33831;DHT22;20137;48.834;8.732;2023-02-16T00:14:16;4.50;99.90
33831;DHT22;20137;48.834;8.732;2023-02-16T00:16:42;4.40;99.90
33831;DHT22;20137;48.834;8.732;2023-02-16T00:21:42;4.60;99.90
33831;DHT22;20137;48.834;8.732;2023-02-16T00:24:07;4.60;99.90
33831;DHT22;20137;48.834;8.732;2023-02-16T00:26:33;4.60;99.90
33831;DHT22;20137;48.834;8.732;2023-02-16T00:29:00;4.60;99.90
33831;DHT22;20137;48.834;8.732;2023-02-16T00:31:27;4.60;99.90
33831;DHT22;20137;48.834;8.732;2023-02-16T00:34:16;4.60;99.90
33831;DHT22;20137;48.834;8.732;2023-02-16T00:36:46;4.60;99.90
33831;DHT22;20137;48.834;8.732;2023-02-16T00:39:12;4.70;99.90
33831;DHT22;20137;48.834;8.732;2023-02-16T00:41:37;4.80;99.90
33831;DHT22;20137;48.834;8.732;2023-02-16T00:44:18;4.70;99.90
33831;DHT22;20137;48.834;8.732;2023-02-16T00:46:45;4.70;99.90
33831;DHT22;20137;48.834;8.732;2023-02-16T00:49:16;4.70;99.90
33831;DHT22;20137;48.834;8.732;2023-02-16T00:51:42;4.70;99.90
33831;DHT22;20137;48.834;8.732;2023-02-16T00:54:08;4.60;99.90
33831;DHT22;20137;48.834;8.732;2023-02-16T00:56:34;4.60;99.90
33831;DHT22;20137;48.834;8.732;2023-02-16T00:59:00;4.60;99.90
33831;DHT22;20137;48.834;8.732;2023-02-16T01:01:30;4.60;99.90
33831;DHT22;20137;48.834;8.732;2023-02-16T01:03:59;4.60;99.90
33831;DHT22;20137;48.834;8.732;2023-02-16T01:06:25;4.40;99.90
33831;DHT22;20137;48.834;8.732;2023-02-16T01:09:18;4.50;99.90
33831;DHT22;20137;48.834;8.732;2023-02-16T01:12:12;4.50;99.90
33831;DHT22;20137;48.834;8.732;2023-02-16T01:14:39;4.50;99.90
33831;DHT22;20137;48.834;8.732;2023-02-16T01:17:05;4.50;99.90
33831;DHT22;20137;48.834;8.732;2023-02-16T01:19:30;4.60;99.90
33831;DHT22;20137;48.834;8.732;2023-02-16T01:21:56;4.70;99.90
33831;DHT22;20137;48.834;8.732;2023-02-16T01:24:21;4.60;99.90
33831;DHT22;20137;48.834;8.732;2023-02-16T01:26:49;4.50;99.90
33831;DHT22;20137;48.834;8.732;2023-02-16T01:29:20;4.40;99.90
33831;DHT22;20137;48.834;8.732;2023-02-16T01:31:46;4.20;99.90
33831;DHT22;20137;48.834;8.732;2023-02-16T01:34:12;4.10;99.90
33831;DHT22;20137;48.834;8.732;2023-02-16T01:36:41;4.10;99.90
33831;DHT22;20137;48.834;8.732;2023-02-16T01:39:08;4.10;99.90
33831;DHT22;20137;48.834;8.732;2023-02-16T01:41:57;4.00;99.90
33831;DHT22;20137;48.834;8.732;2023-02-16T01:44:27;4.10;99.90
33831;DHT22;20137;48.834;8.732;2023-02-16T01:46:55;4.00;99.90
33831;DHT22;20137;48.834;8.732;2023-02-16T01:49:23;4.00;99.90
33831;DHT22;20137;48.834;8.732;2023-02-16T01:54:40;3.90;99.90
33831;DHT22;20137;48.834;8.732;2023-02-16T01:59:40;3.90;99.90
33831;DHT22;20137;48.834;8.732;2023-02-16T02:02:26;3.80;99.90
33831;DHT22;20137;48.834;8.732;2023-02-16T02:04:59;3.80;99.90
33831;DHT22;20137;48.834;8.732;2023-02-16T02:07:51;3.70;99.90
33831;DHT22;20137;48.834;8.732;2023-02-16T02:10:35;3.60;99.90
33831;DHT22;20137;48.834;8.732;2023-02-16T02:15:33;3.50;99.90
33831;DHT22;20137;48.834;8.732;2023-02-16T02:17:59;3.50;99.90
33831;DHT22;20137;48.834;8.732;2023-02-16T02:20:32;3.50;99.90
33831;DHT22;20137;48.834;8.732;2023-02-16T02:35:24;3.90;99.90
33831;DHT22;20137;48.834;8.732;2023-02-16T02:43:41;3.80;99.90
33831;DHT22;20137;48.834;8.732;2023-02-16T02:48:49;4.20;99.90
33831;DHT22;20137;48.834;8.732;2023-02-16T02:51:15;4.40;99.90
33831;DHT22;20137;48.834;8.732;2023-02-16T02:54:15;4.50;99.90
33831;DHT22;20137;48.834;8.732;2023-02-16T02:57:06;4.50;99.90
33831;DHT22;20137;48.834;8.732;2023-02-16T03:00:03;4.60;99.90
33831;DHT22;20137;48.834;8.732;2023-02-16T03:02:51;4.70;99.90
33831;DHT22;20137;48.834;8.732;2023-02-16T03:05:19;4.80;99.90
33831;DHT22;20137;48.834;8.732;2023-02-16T03:07:48;4.70;99.90
33831;DHT22;20137;48.834;8.732;2023-02-16T03:10:21;4.70;99.90
33831;DHT22;20137;48.834;8.732;2023-02-16T03:13:15;4.80;99.90
33831;DHT22;20137;48.834;8.732;2023-02-16T03:15:44;4.80;99.90
33831;DHT22;20137;48.834;8.732;2023-02-16T03:18:11;4.70;99.90
33831;DHT22;20137;48.834;8.732;2023-02-16T03:20:57;4.80;99.90
33831;DHT22;20137;48.834;8.732;2023-02-16T03:23:44;4.80;99.90
33831;DHT22;20137;48.834;8.732;2023-02-16T03:26:28;4.70;99.90
33831;DHT22;20137;48.834;8.732;2023-02-16T03:29:13;4.80;99.90
33831;DHT22;20137;48.834;8.732;2023-02-16T03:31:44;4.80;99.90
33831;DHT22;20137;48.834;8.732;2023-02-16T03:34:10;4.70;99.90
33831;DHT22;20137;48.834;8.732;2023-02-16T03:36:39;4.80;99.90
33831;DHT22;20137;48.834;8.732;2023-02-16T03:39:06;4.80;99.90
33831;DHT22;20137;48.834;8.732;2023-02-16T03:41:53;4.70;99.90
33831;DHT22;20137;48.834;8.732;2023-02-16T03:44:19;4.70;99.90
33831;DHT22;20137;48.834;8.732;2023-02-16T03:46:45;4.70;99.90
33831;DHT22;20137;48.834;8.732;2023-02-16T03:49:14;4.80;99.90
33831;DHT22;20137;48.834;8.732;2023-02-16T03:51:40;4.80;99.90
33831;DHT22;20137;48.834;8.732;2023-02-16T03:54:06;4.70;99.90
33831;DHT22;20137;48.834;8.732;2023-02-16T03:56:32;4.70;99.90
33831;DHT22;20137;48.834;8.732;2023-02-16T03:58:57;4.80;99.90
33831;DHT22;20137;48.834;8.732;2023-02-16T04:01:23;4.60;99.90
33831;DHT22;20137;48.834;8.732;2023-02-16T04:03:49;4.60;99.90
33831;DHT22;20137;48.834;8.732;2023-02-16T04:06:15;4.60;99.90
33831;DHT22;20137;48.834;8.732;2023-02-16T04:08:40;4.70;99.90
33831;DHT22;20137;48.834;8.732;2023-02-16T04:11:06;4.80;99.90
33831;DHT22;20137;48.834;8.732;2023-02-16T04:13:52;4.80;99.90
33831;DHT22;20137;48.834;8.732;2023-02-16T04:16:18;4.70;99.90
33831;DHT22;20137;48.834;8.732;2023-02-16T04:18:44;4.80;99.90
33831;DHT22;20137;48.834;8.732;2023-02-16T04:21:10;4.70;99.90
33831;DHT22;20137;48.834;8.732;2023-02-16T04:23:35;4.60;99.90
33831;DHT22;20137;48.834;8.732;2023-02-16T04:26:01;4.60;99.90
33831;DHT22;20137;48.834;8.732;2023-02-16T04:28:26;4.50;99.90
33831;DHT22;20137;48.834;8.732;2023-02-16T04:30:52;4.40;99.90
33831;DHT22;20137;48.834;8.732;2023-02-16T04:33:17;4.40;99.90
33831;DHT22;20137;48.834;8.732;2023-02-16T04:35:43;4.40;99.90
33831;DHT22;20137;48.834;8.732;2023-02-16T04:38:09;4.30;99.90
33831;DHT22;20137;48.834;8.732;2023-02-16T04:40:35;4.40;99.90
33831;DHT22;20137;48.834;8.732;2023-02-16T04:43:00;4.30;99.90
33831;DHT22;20137;48.834;8.732;2023-02-16T04:45:26;4.20;99.90
33831;DHT22;20137;48.834;8.732;2023-02-16T04:47:52;4.20;99.90
33831;DHT22;20137;48.834;8.732;2023-02-16T04:50:17;4.10;99.90
33831;DHT22;20137;48.834;8.732;2023-02-16T04:52:43;4.20;99.90
33831;DHT22;20137;48.834;8.732;2023-02-16T04:55:09;4.30;99.90
33831;DHT22;20137;48.834;8.732;2023-02-16T04:57:38;4.10;99.90
33831;DHT22;20137;48.834;8.732;2023-02-16T05:00:06;4.10;99.90
33831;DHT22;20137;48.834;8.732;2023-02-16T05:02:32;4.00;99.90
33831;DHT22;20137;48.834;8.732;2023-02-16T05:04:58;4.00;99.90
33831;DHT22;20137;48.834;8.732;2023-02-16T05:07:24;3.90;99.90
33831;DHT22;20137;48.834;8.732;2023-02-16T05:09:50;3.80;99.90
33831;DHT22;20137;48.834;8.732;2023-02-16T05:12:15;3.70;99.90
33831;DHT22;20137;48.834;8.732;2023-02-16T05:14:59;3.70;99.90
33831;DHT22;20137;48.834;8.732;2023-02-16T05:17:26;3.70;99.90
33831;DHT22;20137;48.834;8.732;2023-02-16T05:19:57;3.60;99.90
33831;DHT22;20137;48.834;8.732;2023-02-16T05:22:23;3.60;99.90
33831;DHT22;20137;48.834;8.732;2023-02-16T05:24:49;3.50;99.90
33831;DHT22;20137;48.834;8.732;2023-02-16T05:27:22;3.50;99.90
33831;DHT22;20137;48.834;8.732;2023-02-16T05:29:48;3.50;99.90
33831;DHT22;20137;48.834;8.732;2023-02-16T05:32:14;3.60;99.90
33831;DHT22;20137;48.834;8.732;2023-02-16T05:34:40;3.60;99.90
33831;DHT22;20137;48.834;8.732;2023-02-16T05:37:06;3.50;99.90
33831;DHT22;20137;48.834;8.732;2023-02-16T05:39:31;3.40;99.90
33831;DHT22;20137;48.834;8.732;2023-02-16T05:41:57;3.50;99.90
33831;DHT22;20137;48.834;8.732;2023-02-16T05:44:23;3.30;99.90
33831;DHT22;20137;48.834;8.732;2023-02-16T05:46:48;3.30;99.90
33831;DHT22;20137;48.834;8.732;2023-02-16T05:49:15;3.20;99.90
33831;DHT22;20137;48.834;8.732;2023-02-16T05:51:41;3.20;99.90
33831;DHT22;20137;48.834;8.732;2023-02-16T05:54:07;3.10;99.90
33831;DHT22;20137;48.834;8.732;2023-02-16T05:56:35;3.10;99.90
33831;DHT22;20137;48.834;8.732;2023-02-16T05:59:01;3.10;99.90
33831;DHT22;20137;48.834;8.732;2023-02-16T06:01:27;3.20;99.90
33831;DHT22;20137;48.834;8.732;2023-02-16T06:03:53;3.20;99.90
33831;DHT22;20137;48.834;8.732;2023-02-16T06:06:19;3.30;99.90
33831;DHT22;20137;48.834;8.732;2023-02-16T06:08:45;3.30;99.90
33831;DHT22;20137;48.834;8.732;2023-02-16T06:11:11;3.30;99.90
33831;DHT22;20137;48.834;8.732;2023-02-16T06:13:55;3.30;99.90
33831;DHT22;20137;48.834;8.732;2023-02-16T06:16:25;3.40;99.90
33831;DHT22;20137;48.834;8.732;2023-02-16T06:18:52;3.30;99.90
33831;DHT22;20137;48.834;8.732;2023-02-16T06:21:17;3.30;99.90
33831;DHT22;20137;48.834;8.732;2023-02-16T06:23:43;3.30;99.90
33831;DHT22;20137;48.834;8.732;2023-02-16T06:26:08;3.20;99.90
33831;DHT22;20137;48.834;8.732;2023-02-16T06:28:34;3.30;99.90
33831;DHT22;20137;48.834;8.732;2023-02-16T06:30:59;3.20;99.90
33831;DHT22;20137;48.834;8.732;2023-02-16T06:33:25;3.20;99.90
33831;DHT22;20137;48.834;8.732;2023-02-16T06:35:51;3.30;99.90
33831;DHT22;20137;48.834;8.732;2023-02-16T06:38:16;3.20;99.90
33831;DHT22;20137;48.834;8.732;2023-02-16T06:40:42;3.20;99.90
33831;DHT22;20137;48.834;8.732;2023-02-16T06:43:07;3.20;99.90
33831;DHT22;20137;48.834;8.732;2023-02-16T06:45:33;3.20;99.90
33831;DHT22;20137;48.834;8.732;2023-02-16T06:47:59;3.20;99.90
33831;DHT22;20137;48.834;8.732;2023-02-16T06:50:24;3.20;99.90
33831;DHT22;20137;48.834;8.732;2023-02-16T06:52:50;3.30;99.90
33831;DHT22;20137;48.834;8.732;2023-02-16T06:55:15;3.20;99.90
33831;DHT22;20137;48.834;8.732;2023-02-16T06:57:41;3.30;99.90
33831;DHT22;20137;48.834;8.732;2023-02-16T07:00:07;3.40;99.90
33831;DHT22;20137;48.834;8.732;2023-02-16T07:02:33;3.50;99.90
33831;DHT22;20137;48.834;8.732;2023-02-16T07:05:00;3.50;99.90
33831;DHT22;20137;48.834;8.732;2023-02-16T07:07:25;3.50;99.90
33831;DHT22;20137;48.834;8.732;2023-02-16T07:09:51;3.60;99.90
33831;DHT22;20137;48.834;8.732;2023-02-16T07:12:17;3.60;99.90
33831;DHT22;20137;48.834;8.732;2023-02-16T07:14:42;3.70;99.90
33831;DHT22;20137;48.834;8.732;2023-02-16T07:17:08;3.80;99.90
33831;DHT22;20137;48.834;8.732;2023-02-16T07:19:34;3.80;99.90
33831;DHT22;20137;48.834;8.732;2023-02-16T07:22:00;3.80;99.90
33831;DHT22;20137;48.834;8.732;2023-02-16T07:24:26;3.80;99.90
33831;DHT22;20137;48.834;8.732;2023-02-16T07:26:52;3.90;99.90
33831;DHT22;20137;48.834;8.732;2023-02-16T07:29:18;3.90;99.90
33831;DHT22;20137;48.834;8.732;2023-02-16T07:31:43;4.00;99.90
33831;DHT22;20137;48.834;8.732;2023-02-16T07:34:09;4.20;99.90
33831;DHT22;20137;48.834;8.732;2023-02-16T07:36:35;4.20;99.90
33831;DHT22;20137;48.834;8.732;2023-02-16T07:39:00;4.30;99.90
33831;DHT22;20137;48.834;8.732;2023-02-16T07:41:26;4.40;99.90
33831;DHT22;20137;48.834;8.732;2023-02-16T07:43:52;4.50;99.90
33831;DHT22;20137;48.834;8.732;2023-02-16T07:46:18;4.60;99.90
33831;DHT22;20137;48.834;8.732;2023-02-16T07:48:48;4.60;99.90
33831;DHT22;20137;48.834;8.732;2023-02-16T07:51:26;4.80;99.90
33831;DHT22;20137;48.834;8.732;2023-02-16T07:53:52;4.90;99.90
33831;DHT22;20137;48.834;8.732;2023-02-16T07:56:27;5.00;99.90
33831;DHT22;20137;48.834;8.732;2023-02-16T07:58:55;5.20;99.90
33831;DHT22;20137;48.834;8.732;2023-02-16T08:01:21;5.30;99.90
33831;DHT22;20137;48.834;8.732;2023-02-16T08:03:47;5.60;99.90
33831;DHT22;20137;48.834;8.732;2023-02-16T08:06:14;5.70;99.90
33831;DHT22;20137;48.834;8.732;2023-02-16T08:08:40;5.80;99.90
33831;DHT22;20137;48.834;8.732;2023-02-16T08:11:17;6.00;99.90
33831;DHT22;20137;48.834;8.732;2023-02-16T08:13:43;6.20;99.90
33831;DHT22;20137;48.834;8.732;2023-02-16T08:16:17;6.40;99.90
33831;DHT22;20137;48.834;8.732;2023-02-16T08:18:43;6.50;99.90
33831;DHT22;20137;48.834;8.732;2023-02-16T08:21:11;6.60;99.90
33831;DHT22;20137;48.834;8.732;2023-02-16T08:23:43;6.70;99.90
33831;DHT22;20137;48.834;8.732;2023-02-16T08:26:13;6.70;99.90
33831;DHT22;20137;48.834;8.732;2023-02-16T08:28:38;6.80;99.90
33831;DHT22;20137;48.834;8.732;2023-02-16T08:31:11;6.60;99.90
33831;DHT22;20137;48.834;8.732;2023-02-16T08:33:37;6.60;99.90
33831;DHT22;20137;48.834;8.732;2023-02-16T08:36:04;6.50;99.90
33831;DHT22;20137;48.834;8.732;2023-02-16T08:38:34;6.40;99.90
33831;DHT22;20137;48.834;8.732;2023-02-16T08:40:59;6.40;99.90
33831;DHT22;20137;48.834;8.732;2023-02-16T08:43:25;6.50;99.90
33831;DHT22;20137;48.834;8.732;2023-02-16T08:45:51;6.50;99.90
33831;DHT22;20137;48.834;8.732;2023-02-16T08:48:17;6.70;99.90
33831;DHT22;20137;48.834;8.732;2023-02-16T08:50:47;6.70;99.90
33831;DHT22;20137;48.834;8.732;2023-02-16T08:53:18;6.80;99.90
33831;DHT22;20137;48.834;8.732;2023-02-16T08:55:53;6.90;99.90
33831;DHT22;20137;48.834;8.732;2023-02-16T08:58:20;6.90;99.90
33831;DHT22;20137;48.834;8.732;2023-02-16T09:00:45;7.10;99.90
33831;DHT22;20137;48.834;8.732;2023-02-16T09:03:11;7.30;99.90
33831;DHT22;20137;48.834;8.732;2023-02-16T09:05:38;7.30;99.90
33831;DHT22;20137;48.834;8.732;2023-02-16T09:08:04;7.40;99.90
33831;DHT22;20137;48.834;8.732;2023-02-16T09:10:30;7.50;99.90
33831;DHT22;20137;48.834;8.732;2023-02-16T09:12:55;7.60;99.90
33831;DHT22;20137;48.834;8.732;2023-02-16T09:15:22;7.70;99.90
33831;DHT22;20137;48.834;8.732;2023-02-16T09:17:48;7.70;99.90
33831;DHT22;20137;48.834;8.732;2023-02-16T09:20:13;7.70;99.90
33831;DHT22;20137;48.834;8.732;2023-02-16T09:22:43;7.90;99.90
33831;DHT22;20137;48.834;8.732;2023-02-16T09:25:08;7.90;99.90
33831;DHT22;20137;48.834;8.732;2023-02-16T09:27:35;7.90;99.90
33831;DHT22;20137;48.834;8.732;2023-02-16T09:30:01;7.90;99.90
33831;DHT22;20137;48.834;8.732;2023-02-16T09:32:28;7.90;99.90
33831;DHT22;20137;48.834;8.732;2023-02-16T09:34:54;7.90;99.90
33831;DHT22;20137;48.834;8.732;2023-02-16T09:37:20;7.90;99.90
33831;DHT22;20137;48.834;8.732;2023-02-16T09:39:46;7.90;99.90
33831;DHT22;20137;48.834;8.732;2023-02-16T09:45:10;7.80;99.90
33831;DHT22;20137;48.834;8.732;2023-02-16T09:47:40;7.80;99.90
33831;DHT22;20137;48.834;8.732;2023-02-16T09:50:27;7.90;99.90
33831;DHT22;20137;48.834;8.732;2023-02-16T09:53:04;7.80;99.90
33831;DHT22;20137;48.834;8.732;2023-02-16T09:58:21;7.80;99.90
33831;DHT22;20137;48.834;8.732;2023-02-16T10:00:53;7.90;99.90
33831;DHT22;20137;48.834;8.732;2023-02-16T10:08:54;8.30;99.90
33831;DHT22;20137;48.834;8.732;2023-02-16T10:11:32;8.40;99.90
33831;DHT22;20137;48.834;8.732;2023-02-16T10:17:21;8.60;99.90
33831;DHT22;20137;48.834;8.732;2023-02-16T10:19:56;8.80;99.90
33831;DHT22;20137;48.834;8.732;2023-02-16T10:22:29;8.90;99.90
33831;DHT22;20137;48.834;8.732;2023-02-16T10:27:39;9.00;99.90
33831;DHT22;20137;48.834;8.732;2023-02-16T10:30:19;9.20;99.90
33831;DHT22;20137;48.834;8.732;2023-02-16T10:32:57;9.40;99.90
33831;DHT22;20137;48.834;8.732;2023-02-16T10:35:47;9.60;99.90
33831;DHT22;20137;48.834;8.732;2023-02-16T10:38:30;9.70;99.90
33831;DHT22;20137;48.834;8.732;2023-02-16T10:43:52;9.90;99.90
33831;DHT22;20137;48.834;8.732;2023-02-16T10:46:24;10.10;99.90
33831;DHT22;20137;48.834;8.732;2023-02-16T10:48:54;10.80;99.90
33831;DHT22;20137;48.834;8.732;2023-02-16T10:51:23;10.50;99.90
33831;DHT22;20137;48.834;8.732;2023-02-16T10:53:55;10.80;99.90
33831;DHT22;20137;48.834;8.732;2023-02-16T10:59:40;10.90;99.90
33831;DHT22;20137;48.834;8.732;2023-02-16T11:02:23;11.00;99.90
33831;DHT22;20137;48.834;8.732;2023-02-16T11:04:51;11.10;99.90
33831;DHT22;20137;48.834;8.732;2023-02-16T11:07:28;11.20;99.90
33831;DHT22;20137;48.834;8.732;2023-02-16T11:09:57;11.30;99.90
33831;DHT22;20137;48.834;8.732;2023-02-16T11:15:25;11.50;99.90
33831;DHT22;20137;48.834;8.732;2023-02-16T11:17:53;11.60;99.90
33831;DHT22;20137;48.834;8.732;2023-02-16T11:20:49;11.70;99.90
33831;DHT22;20137;48.834;8.732;2023-02-16T11:23:29;11.80;99.90
33831;DHT22;20137;48.834;8.732;2023-02-16T11:28:30;11.90;99.90
33831;DHT22;20137;48.834;8.732;2023-02-16T11:33:34;12.10;99.90
33831;DHT22;20137;48.834;8.732;2023-02-16T11:36:16;12.30;99.90
33831;DHT22;20137;48.834;8.732;2023-02-16T11:38:55;12.30;99.90
33831;DHT22;20137;48.834;8.732;2023-02-16T11:41:23;12.40;99.90
33831;DHT22;20137;48.834;8.732;2023-02-16T11:43:50;12.40;99.70
33831;DHT22;20137;48.834;8.732;2023-02-16T11:46:18;12.50;99.90
33831;DHT22;20137;48.834;8.732;2023-02-16T11:48:45;12.60;99.90
33831;DHT22;20137;48.834;8.732;2023-02-16T11:51:13;12.70;99.70
33831;DHT22;20137;48.834;8.732;2023-02-16T11:53:42;12.80;99.80
33831;DHT22;20137;48.834;8.732;2023-02-16T11:56:12;12.70;99.30
33831;DHT22;20137;48.834;8.732;2023-02-16T11:58:42;12.60;99.30
33831;DHT22;20137;48.834;8.732;2023-02-16T12:01:31;12.70;99.80
33831;DHT22;20137;48.834;8.732;2023-02-16T12:12:36;12.90;99.50
33831;DHT22;20137;48.834;8.732;2023-02-16T12:20:50;12.90;98.80
33831;DHT22;20137;48.834;8.732;2023-02-16T12:29:20;13.10;98.50
33831;DHT22;20137;48.834;8.732;2023-02-16T12:45:50;13.00;98.00
33831;DHT22;20137;48.834;8.732;2023-02-16T12:48:41;13.00;98.00
33831;DHT22;20137;48.834;8.732;2023-02-16T12:51:17;13.00;98.20
33831;DHT22;20137;48.834;8.732;2023-02-16T12:56:23;13.10;98.60
33831;DHT22;20137;48.834;8.732;2023-02-16T12:58:53;13.20;97.90
33831;DHT22;20137;48.834;8.732;2023-02-16T13:01:27;13.20;98.10
33831;DHT22;20137;48.834;8.732;2023-02-16T13:04:16;13.10;97.60
33831;DHT22;20137;48.834;8.732;2023-02-16T13:07:00;13.10;97.90
33831;DHT22;20137;48.834;8.732;2023-02-16T13:09:39;13.20;97.50
33831;DHT22;20137;48.834;8.732;2023-02-16T13:15:17;13.20;97.40
33831;DHT22;20137;48.834;8.732;2023-02-16T13:17:51;13.20;97.40
33831;DHT22;20137;48.834;8.732;2023-02-16T13:20:18;13.00;97.40
33831;DHT22;20137;48.834;8.732;2023-02-16T13:25:39;12.80;97.80
33831;DHT22;20137;48.834;8.732;2023-02-16T13:36:36;12.80;97.00
33831;DHT22;20137;48.834;8.732;2023-02-16T13:39:19;12.70;97.00
33831;DHT22;20137;48.834;8.732;2023-02-16T13:42:15;12.70;97.10
33831;DHT22;20137;48.834;8.732;2023-02-16T13:44:59;12.60;97.30
33831;DHT22;20137;48.834;8.732;2023-02-16T13:47:35;12.70;97.20
33831;DHT22;20137;48.834;8.732;2023-02-16T13:50:06;12.70;97.00
33831;DHT22;20137;48.834;8.732;2023-02-16T13:52:37;12.70;96.90
33831;DHT22;20137;48.834;8.732;2023-02-16T13:55:06;12.80;97.00
33831;DHT22;20137;48.834;8.732;2023-02-16T14:00:41;12.90;96.90
33831;DHT22;20137;48.834;8.732;2023-02-16T14:03:35;13.00;96.80
33831;DHT22;20137;48.834;8.732;2023-02-16T14:14:37;12.60;96.70
33831;DHT22;20137;48.834;8.732;2023-02-16T14:22:46;12.50;97.10
33831;DHT22;20137;48.834;8.732;2023-02-16T14:30:41;12.40;97.30
33831;DHT22;20137;48.834;8.732;2023-02-16T14:35:44;12.40;97.10
33831;DHT22;20137;48.834;8.732;2023-02-16T14:38:32;12.40;97.60
33831;DHT22;20137;48.834;8.732;2023-02-16T14:41:00;12.40;97.60
33831;DHT22;20137;48.834;8.732;2023-02-16T14:43:43;12.40;97.80
33831;DHT22;20137;48.834;8.732;2023-02-16T14:55:01;12.10;97.50
33831;DHT22;20137;48.834;8.732;2023-02-16T15:00:29;12.10;97.60
33831;DHT22;20137;48.834;8.732;2023-02-16T15:03:01;12.20;97.40
33831;DHT22;20137;48.834;8.732;2023-02-16T15:05:33;12.10;97.50
33831;DHT22;20137;48.834;8.732;2023-02-16T15:08:12;12.20;97.70
33831;DHT22;20137;48.834;8.732;2023-02-16T15:10:42;12.20;97.70
33831;DHT22;20137;48.834;8.732;2023-02-16T15:13:20;12.30;97.60
33831;DHT22;20137;48.834;8.732;2023-02-16T15:15:49;12.20;97.70
33831;DHT22;20137;48.834;8.732;2023-02-16T15:18:18;12.20;97.70
33831;DHT22;20137;48.834;8.732;2023-02-16T15:20:48;12.10;97.70
33831;DHT22;20137;48.834;8.732;2023-02-16T15:23:22;12.00;97.80
33831;DHT22;20137;48.834;8.732;2023-02-16T15:28:22;11.90;98.20
33831;DHT22;20137;48.834;8.732;2023-02-16T15:30:57;11.80;98.10
33831;DHT22;20137;48.834;8.732;2023-02-16T15:35:59;11.60;98.50
33831;DHT22;20137;48.834;8.732;2023-02-16T15:38:31;11.60;98.40
33831;DHT22;20137;48.834;8.732;2023-02-16T15:41:04;11.50;98.20
33831;DHT22;20137;48.834;8.732;2023-02-16T15:46:02;11.30;98.60
33831;DHT22;20137;48.834;8.732;2023-02-16T15:48:36;11.30;98.80
33831;DHT22;20137;48.834;8.732;2023-02-16T15:51:13;11.20;99.00
33831;DHT22;20137;48.834;8.732;2023-02-16T15:54:01;11.10;99.10
33831;DHT22;20137;48.834;8.732;2023-02-16T15:59:21;11.00;99.50
33831;DHT22;20137;48.834;8.732;2023-02-16T16:01:47;10.90;99.50
33831;DHT22;20137;48.834;8.732;2023-02-16T16:04:21;10.80;99.50
33831;DHT22;20137;48.834;8.732;2023-02-16T16:06:48;10.80;99.80
33831;DHT22;20137;48.834;8.732;2023-02-16T16:09:24;10.70;99.90
33831;DHT22;20137;48.834;8.732;2023-02-16T16:11:53;10.70;99.90
33831;DHT22;20137;48.834;8.732;2023-02-16T16:14:19;10.60;99.90
33831;DHT22;20137;48.834;8.732;2023-02-16T16:16:46;10.60;99.90
33831;DHT22;20137;48.834;8.732;2023-02-16T16:19:21;10.50;99.90
33831;DHT22;20137;48.834;8.732;2023-02-16T16:21:53;10.40;99.90
33831;DHT22;20137;48.834;8.732;2023-02-16T16:24:36;10.30;99.90
33831;DHT22;20137;48.834;8.732;2023-02-16T16:27:06;10.30;99.90
33831;DHT22;20137;48.834;8.732;2023-02-16T16:31:58;10.20;99.90
33831;DHT22;20137;48.834;8.732;2023-02-16T16:34:50;10.10;99.90
33831;DHT22;20137;48.834;8.732;2023-02-16T16:37:28;10.10;99.90
33831;DHT22;20137;48.834;8.732;2023-02-16T16:40:04;10.10;99.90
33831;DHT22;20137;48.834;8.732;2023-02-16T16:42:31;10.00;99.90
33831;DHT22;20137;48.834;8.732;2023-02-16T16:45:02;10.00;99.90
33831;DHT22;20137;48.834;8.732;2023-02-16T16:50:27;10.00;99.90
33831;DHT22;20137;48.834;8.732;2023-02-16T16:52:51;9.90;99.90
33831;DHT22;20137;48.834;8.732;2023-02-16T16:58:09;9.90;99.90
33831;DHT22;20137;48.834;8.732;2023-02-16T17:00:36;9.80;99.90
33831;DHT22;20137;48.834;8.732;2023-02-16T17:03:05;9.80;99.90
33831;DHT22;20137;48.834;8.732;2023-02-16T17:05:33;9.70;99.90
33831;DHT22;20137;48.834;8.732;2023-02-16T17:07:59;9.70;99.90
33831;DHT22;20137;48.834;8.732;2023-02-16T17:10:25;9.70;99.90
33831;DHT22;20137;48.834;8.732;2023-02-16T17:12:53;9.60;99.90
33831;DHT22;20137;48.834;8.732;2023-02-16T17:15:46;9.60;99.90
33831;DHT22;20137;48.834;8.732;2023-02-16T17:18:15;9.60;99.90
33831;DHT22;20137;48.834;8.732;2023-02-16T17:20:42;9.50;99.90
33831;DHT22;20137;48.834;8.732;2023-02-16T17:23:10;9.50;99.90
33831;DHT22;20137;48.834;8.732;2023-02-16T17:25:36;9.50;99.90
33831;DHT22;20137;48.834;8.732;2023-02-16T17:28:03;9.50;99.90
33831;DHT22;20137;48.834;8.732;2023-02-16T17:30:29;9.40;99.90
33831;DHT22;20137;48.834;8.732;2023-02-16T17:32:55;9.40;99.90
33831;DHT22;20137;48.834;8.732;2023-02-16T17:35:20;9.40;99.90
33831;DHT22;20137;48.834;8.732;2023-02-16T17:37:46;9.40;99.90
33831;DHT22;20137;48.834;8.732;2023-02-16T17:40:14;9.40;99.90
33831;DHT22;20137;48.834;8.732;2023-02-16T17:42:44;9.40;99.90
33831;DHT22;20137;48.834;8.732;2023-02-16T17:45:10;9.40;99.90
33831;DHT22;20137;48.834;8.732;2023-02-16T17:47:36;9.40;99.90
33831;DHT22;20137;48.834;8.732;2023-02-16T17:50:02;9.40;99.90
33831;DHT22;20137;48.834;8.732;2023-02-16T17:52:28;9.40;99.90
33831;DHT22;20137;48.834;8.732;2023-02-16T17:54:54;9.50;99.90
33831;DHT22;20137;48.834;8.732;2023-02-16T17:57:19;9.40;99.90
33831;DHT22;20137;48.834;8.732;2023-02-16T17:59:45;9.40;99.90
33831;DHT22;20137;48.834;8.732;2023-02-16T18:02:11;9.40;99.90
33831;DHT22;20137;48.834;8.732;2023-02-16T18:04:37;9.40;99.90
33831;DHT22;20137;48.834;8.732;2023-02-16T18:07:12;9.40;99.90
33831;DHT22;20137;48.834;8.732;2023-02-16T18:09:39;9.40;99.90
33831;DHT22;20137;48.834;8.732;2023-02-16T18:12:05;9.40;99.90
33831;DHT22;20137;48.834;8.732;2023-02-16T18:14:31;9.40;99.90
33831;DHT22;20137;48.834;8.732;2023-02-16T18:16:56;9.40;99.90
33831;DHT22;20137;48.834;8.732;2023-02-16T18:19:26;9.40;99.90
33831;DHT22;20137;48.834;8.732;2023-02-16T18:21:52;9.40;99.90
33831;DHT22;20137;48.834;8.732;2023-02-16T18:24:18;9.40;99.90
33831;DHT22;20137;48.834;8.732;2023-02-16T18:26:44;9.40;99.90
33831;DHT22;20137;48.834;8.732;2023-02-16T18:29:10;9.30;99.90
33831;DHT22;20137;48.834;8.732;2023-02-16T18:31:36;9.30;99.90
33831;DHT22;20137;48.834;8.732;2023-02-16T18:34:05;9.40;99.90
33831;DHT22;20137;48.834;8.732;2023-02-16T18:36:31;9.30;99.90
33831;DHT22;20137;48.834;8.732;2023-02-16T18:38:57;9.30;99.90
33831;DHT22;20137;48.834;8.732;2023-02-16T18:41:23;9.30;99.90
33831;DHT22;20137;48.834;8.732;2023-02-16T18:43:48;9.40;99.90
33831;DHT22;20137;48.834;8.732;2023-02-16T18:46:14;9.30;99.90
33831;DHT22;20137;48.834;8.732;2023-02-16T18:48:40;9.40;99.90
33831;DHT22;20137;48.834;8.732;2023-02-16T18:51:07;9.30;99.90